sensor_id;sensor_type;location;lat;lon;timestamp;temperature;humidity
10245;DHT22;5167;52.164;10.530;2023-02-05T00:01:55;2.70;34.90
10245;DHT22;5167;52.164;10.530;2023-02-05T00:04:21;2.60;34.90
10245;DHT22;5167;52.164;10.530;2023-02-05T00:06:47;2.60;34.20
10245;DHT22;5167;52.164;10.530;2023-02-05T00:09:12;2.60;34.70
10245;DHT22;5167;52.164;10.530;2023-02-05T00:11:37;2.60;34.40
10245;DHT22;5167;52.164;10.530;2023-02-05T00:14:03;2.60;34.60
10245;DHT22;5167;52.164;10.530;2023-02-05T00:16:29;2.60;35.40
10245;DHT22;5167;52.164;10.530;2023-02-05T00:18:55;2.50;34.60
10245;DHT22;5167;52.164;10.530;2023-02-05T00:21:22;2.60;34.70
10245;DHT22;5167;52.164;10.530;2023-02-05T00:23:48;2.60;35.00
10245;DHT22;5167;52.164;10.530;2023-02-05T00:26:13;2.60;33.90
10245;DHT22;5167;52.164;10.530;2023-02-05T00:28:39;2.60;33.70
10245;DHT22;5167;52.164;10.530;2023-02-05T00:31:14;2.50;33.70
10245;DHT22;5167;52.164;10.530;2023-02-05T00:33:40;2.60;34.60
10245;DHT22;5167;52.164;10.530;2023-02-05T00:36:06;2.50;33.90
10245;DHT22;5167;52.164;10.530;2023-02-05T00:38:32;2.50;34.10
10245;DHT22;5167;52.164;10.530;2023-02-05T00:40:57;2.40;34.30
10245;DHT22;5167;52.164;10.530;2023-02-05T00:43:23;2.50;34.50
10245;DHT22;5167;52.164;10.530;2023-02-05T00:45:48;2.50;34.20
10245;DHT22;5167;52.164;10.530;2023-02-05T00:48:14;2.50;34.00
10245;DHT22;5167;52.164;10.530;2023-02-05T00:50:39;2.40;34.30
10245;DHT22;5167;52.164;10.530;2023-02-05T00:53:05;2.40;34.30
10245;DHT22;5167;52.164;10.530;2023-02-05T00:55:31;2.30;34.50
10245;DHT22;5167;52.164;10.530;2023-02-05T00:57:56;2.20;34.60
10245;DHT22;5167;52.164;10.530;2023-02-05T01:00:22;2.20;35.60
10245;DHT22;5167;52.164;10.530;2023-02-05T01:02:47;2.20;35.10
10245;DHT22;5167;52.164;10.530;2023-02-05T01:05:13;2.30;34.90
10245;DHT22;5167;52.164;10.530;2023-02-05T01:07:39;2.20;35.20
10245;DHT22;5167;52.164;10.530;2023-02-05T01:10:04;2.10;35.40
10245;DHT22;5167;52.164;10.530;2023-02-05T01:12:30;2.20;35.50
10245;DHT22;5167;52.164;10.530;2023-02-05T01:14:58;2.10;34.90
10245;DHT22;5167;52.164;10.530;2023-02-05T01:17:24;2.10;35.60
10245;DHT22;5167;52.164;10.530;2023-02-05T01:19:49;2.10;35.40
10245;DHT22;5167;52.164;10.530;2023-02-05T01:22:15;2.10;35.40
10245;DHT22;5167;52.164;10.530;2023-02-05T01:24:40;2.20;35.20
10245;DHT22;5167;52.164;10.530;2023-02-05T01:27:06;2.20;34.60
10245;DHT22;5167;52.164;10.530;2023-02-05T01:29:31;2.10;34.80
10245;DHT22;5167;52.164;10.530;2023-02-05T01:31:57;2.10;34.30
10245;DHT22;5167;52.164;10.530;2023-02-05T01:34:22;2.10;34.80
10245;DHT22;5167;52.164;10.530;2023-02-05T01:36:48;2.10;35.10
10245;DHT22;5167;52.164;10.530;2023-02-05T01:39:13;2.10;34.40
10245;DHT22;5167;52.164;10.530;2023-02-05T01:41:39;2.10;34.60
10245;DHT22;5167;52.164;10.530;2023-02-05T01:44:13;2.20;34.50
10245;DHT22;5167;52.164;10.530;2023-02-05T01:46:43;2.10;34.30
10245;DHT22;5167;52.164;10.530;2023-02-05T01:49:28;2.10;34.40
10245;DHT22;5167;52.164;10.530;2023-02-05T01:51:58;2.10;34.00
10245;DHT22;5167;52.164;10.530;2023-02-05T01:54:27;2.10;33.70
10245;DHT22;5167;52.164;10.530;2023-02-05T01:57:04;2.10;34.10
10245;DHT22;5167;52.164;10.530;2023-02-05T01:59:33;2.00;34.30
10245;DHT22;5167;52.164;10.530;2023-02-05T02:02:02;2.00;34.50
10245;DHT22;5167;52.164;10.530;2023-02-05T02:04:44;1.90;34.20
10245;DHT22;5167;52.164;10.530;2023-02-05T02:07:18;1.90;34.50
10245;DHT22;5167;52.164;10.530;2023-02-05T02:09:46;2.00;34.90
10245;DHT22;5167;52.164;10.530;2023-02-05T02:12:15;1.90;35.20
10245;DHT22;5167;52.164;10.530;2023-02-05T02:14:45;1.90;34.80
10245;DHT22;5167;52.164;10.530;2023-02-05T02:17:13;2.00;35.10
10245;DHT22;5167;52.164;10.530;2023-02-05T02:19:59;2.00;34.80
10245;DHT22;5167;52.164;10.530;2023-02-05T02:25:48;2.00;34.50
10245;DHT22;5167;52.164;10.530;2023-02-05T02:31:01;1.80;35.00
10245;DHT22;5167;52.164;10.530;2023-02-05T02:33:44;1.70;35.20
10245;DHT22;5167;52.164;10.530;2023-02-05T02:36:24;1.60;35.80
10245;DHT22;5167;52.164;10.530;2023-02-05T02:39:05;1.60;36.40
10245;DHT22;5167;52.164;10.530;2023-02-05T02:41:45;1.50;37.00
10245;DHT22;5167;52.164;10.530;2023-02-05T02:44:19;1.50;37.60
10245;DHT22;5167;52.164;10.530;2023-02-05T02:46:54;1.50;38.80
10245;DHT22;5167;52.164;10.530;2023-02-05T02:49:27;1.50;38.50
10245;DHT22;5167;52.164;10.530;2023-02-05T02:51:54;1.50;37.80
10245;DHT22;5167;52.164;10.530;2023-02-05T02:54:23;1.50;38.20
10245;DHT22;5167;52.164;10.530;2023-02-05T02:56:51;1.50;37.70
10245;DHT22;5167;52.164;10.530;2023-02-05T02:59:21;1.60;37.90
10245;DHT22;5167;52.164;10.530;2023-02-05T03:01:50;1.60;38.10
10245;DHT22;5167;52.164;10.530;2023-02-05T03:04:23;1.70;37.50
10245;DHT22;5167;52.164;10.530;2023-02-05T03:06:53;1.60;38.10
10245;DHT22;5167;52.164;10.530;2023-02-05T03:09:29;1.60;36.80
10245;DHT22;5167;52.164;10.530;2023-02-05T03:11:56;1.60;37.40
10245;DHT22;5167;52.164;10.530;2023-02-05T03:14:22;1.50;37.00
10245;DHT22;5167;52.164;10.530;2023-02-05T03:16:47;1.50;37.00
10245;DHT22;5167;52.164;10.530;2023-02-05T03:19:13;1.60;37.10
10245;DHT22;5167;52.164;10.530;2023-02-05T03:21:47;1.60;36.90
10245;DHT22;5167;52.164;10.530;2023-02-05T03:24:13;1.50;35.80
10245;DHT22;5167;52.164;10.530;2023-02-05T03:26:39;1.60;37.00
10245;DHT22;5167;52.164;10.530;2023-02-05T03:29:07;1.50;36.70
10245;DHT22;5167;52.164;10.530;2023-02-05T03:31:50;1.50;36.20
10245;DHT22;5167;52.164;10.530;2023-02-05T03:34:30;1.50;37.60
10245;DHT22;5167;52.164;10.530;2023-02-05T03:40:03;1.50;37.40
10245;DHT22;5167;52.164;10.530;2023-02-05T03:42:35;1.50;37.90
10245;DHT22;5167;52.164;10.530;2023-02-05T03:48:20;1.50;37.30
10245;DHT22;5167;52.164;10.530;2023-02-05T03:53:48;1.60;37.00
10245;DHT22;5167;52.164;10.530;2023-02-05T03:56:22;1.50;36.50
10245;DHT22;5167;52.164;10.530;2023-02-05T03:58:52;1.50;36.60
10245;DHT22;5167;52.164;10.530;2023-02-05T04:01:19;1.50;36.80
10245;DHT22;5167;52.164;10.530;2023-02-05T04:03:45;1.50;36.40
10245;DHT22;5167;52.164;10.530;2023-02-05T04:06:11;1.50;36.80
10245;DHT22;5167;52.164;10.530;2023-02-05T04:08:37;1.50;36.20
10245;DHT22;5167;52.164;10.530;2023-02-05T04:11:02;1.50;36.80
10245;DHT22;5167;52.164;10.530;2023-02-05T04:13:28;1.50;36.50
10245;DHT22;5167;52.164;10.530;2023-02-05T04:15:53;1.50;35.80
10245;DHT22;5167;52.164;10.530;2023-02-05T04:18:19;1.40;35.70
10245;DHT22;5167;52.164;10.530;2023-02-05T04:20:44;1.40;36.30
10245;DHT22;5167;52.164;10.530;2023-02-05T04:23:10;1.40;36.20
10245;DHT22;5167;52.164;10.530;2023-02-05T04:25:36;1.40;36.80
10245;DHT22;5167;52.164;10.530;2023-02-05T04:28:02;1.40;36.60
10245;DHT22;5167;52.164;10.530;2023-02-05T04:30:27;1.30;36.80
10245;DHT22;5167;52.164;10.530;2023-02-05T04:32:53;1.40;36.50
10245;DHT22;5167;52.164;10.530;2023-02-05T04:35:18;1.30;36.50
10245;DHT22;5167;52.164;10.530;2023-02-05T04:37:44;1.30;36.80
10245;DHT22;5167;52.164;10.530;2023-02-05T04:40:10;1.30;36.90
10245;DHT22;5167;52.164;10.530;2023-02-05T04:42:35;1.30;36.40
10245;DHT22;5167;52.164;10.530;2023-02-05T04:45:01;1.20;36.80
10245;DHT22;5167;52.164;10.530;2023-02-05T04:47:28;1.30;37.50
10245;DHT22;5167;52.164;10.530;2023-02-05T04:49:54;1.30;37.20
10245;DHT22;5167;52.164;10.530;2023-02-05T04:52:19;1.20;37.00
10245;DHT22;5167;52.164;10.530;2023-02-05T04:54:45;1.30;37.40
10245;DHT22;5167;52.164;10.530;2023-02-05T04:57:10;1.30;37.00
10245;DHT22;5167;52.164;10.530;2023-02-05T04:59:36;1.30;36.80
10245;DHT22;5167;52.164;10.530;2023-02-05T05:02:01;1.30;37.10
10245;DHT22;5167;52.164;10.530;2023-02-05T05:04:27;1.30;37.30
10245;DHT22;5167;52.164;10.530;2023-02-05T05:06:52;1.20;37.70
10245;DHT22;5167;52.164;10.530;2023-02-05T05:09:18;1.20;37.60
10245;DHT22;5167;52.164;10.530;2023-02-05T05:11:45;1.10;38.00
10245;DHT22;5167;52.164;10.530;2023-02-05T05:14:10;1.10;38.70
10245;DHT22;5167;52.164;10.530;2023-02-05T05:16:36;1.10;38.60
10245;DHT22;5167;52.164;10.530;2023-02-05T05:19:01;1.00;38.80
10245;DHT22;5167;52.164;10.530;2023-02-05T05:21:27;1.00;38.70
10245;DHT22;5167;52.164;10.530;2023-02-05T05:23:52;1.10;38.50
10245;DHT22;5167;52.164;10.530;2023-02-05T05:26:18;1.00;39.00
10245;DHT22;5167;52.164;10.530;2023-02-05T05:28:43;1.00;38.80
10245;DHT22;5167;52.164;10.530;2023-02-05T05:31:14;1.10;39.60
10245;DHT22;5167;52.164;10.530;2023-02-05T05:33:41;1.00;39.30
10245;DHT22;5167;52.164;10.530;2023-02-05T05:36:07;1.00;39.30
10245;DHT22;5167;52.164;10.530;2023-02-05T05:38:32;1.20;39.80
10245;DHT22;5167;52.164;10.530;2023-02-05T05:40:58;1.20;39.20
10245;DHT22;5167;52.164;10.530;2023-02-05T05:43:42;1.20;39.00
10245;DHT22;5167;52.164;10.530;2023-02-05T05:46:11;1.20;39.30
10245;DHT22;5167;52.164;10.530;2023-02-05T05:48:36;1.20;39.00
10245;DHT22;5167;52.164;10.530;2023-02-05T05:51:02;1.20;39.80
10245;DHT22;5167;52.164;10.530;2023-02-05T05:53:27;1.20;39.40
10245;DHT22;5167;52.164;10.530;2023-02-05T05:55:54;1.20;39.40
10245;DHT22;5167;52.164;10.530;2023-02-05T05:58:19;1.20;39.30
10245;DHT22;5167;52.164;10.530;2023-02-05T06:00:45;1.20;39.00
10245;DHT22;5167;52.164;10.530;2023-02-05T06:03:11;1.30;40.00
10245;DHT22;5167;52.164;10.530;2023-02-05T06:05:37;1.20;38.60
10245;DHT22;5167;52.164;10.530;2023-02-05T06:08:02;1.40;40.10
10245;DHT22;5167;52.164;10.530;2023-02-05T06:10:28;1.30;40.60
10245;DHT22;5167;52.164;10.530;2023-02-05T06:12:54;1.40;40.20
10245;DHT22;5167;52.164;10.530;2023-02-05T06:15:20;1.40;40.50
10245;DHT22;5167;52.164;10.530;2023-02-05T06:17:46;1.40;39.70
10245;DHT22;5167;52.164;10.530;2023-02-05T06:20:12;1.40;40.30
10245;DHT22;5167;52.164;10.530;2023-02-05T06:22:38;1.40;40.90
10245;DHT22;5167;52.164;10.530;2023-02-05T06:25:04;1.40;40.50
10245;DHT22;5167;52.164;10.530;2023-02-05T06:27:30;1.50;40.30
10245;DHT22;5167;52.164;10.530;2023-02-05T06:29:56;1.40;40.30
10245;DHT22;5167;52.164;10.530;2023-02-05T06:32:21;1.50;40.20
10245;DHT22;5167;52.164;10.530;2023-02-05T06:34:47;1.50;39.50
10245;DHT22;5167;52.164;10.530;2023-02-05T06:37:12;1.50;39.90
10245;DHT22;5167;52.164;10.530;2023-02-05T06:39:38;1.60;40.60
10245;DHT22;5167;52.164;10.530;2023-02-05T06:42:04;1.50;40.40
10245;DHT22;5167;52.164;10.530;2023-02-05T06:44:29;1.40;40.60
10245;DHT22;5167;52.164;10.530;2023-02-05T06:46:55;1.60;40.40
10245;DHT22;5167;52.164;10.530;2023-02-05T06:49:20;1.50;40.50
10245;DHT22;5167;52.164;10.530;2023-02-05T06:51:46;1.60;40.50
10245;DHT22;5167;52.164;10.530;2023-02-05T06:54:11;1.60;40.60
10245;DHT22;5167;52.164;10.530;2023-02-05T06:56:37;1.60;40.00
10245;DHT22;5167;52.164;10.530;2023-02-05T06:59:03;1.60;40.40
10245;DHT22;5167;52.164;10.530;2023-02-05T07:01:28;1.80;41.10
10245;DHT22;5167;52.164;10.530;2023-02-05T07:03:54;1.70;41.00
10245;DHT22;5167;52.164;10.530;2023-02-05T07:06:21;1.70;41.00
10245;DHT22;5167;52.164;10.530;2023-02-05T07:08:48;1.70;40.90
10245;DHT22;5167;52.164;10.530;2023-02-05T07:11:14;1.80;40.50
10245;DHT22;5167;52.164;10.530;2023-02-05T07:13:39;1.70;40.70
10245;DHT22;5167;52.164;10.530;2023-02-05T07:16:05;1.80;40.40
10245;DHT22;5167;52.164;10.530;2023-02-05T07:18:32;1.90;40.30
10245;DHT22;5167;52.164;10.530;2023-02-05T07:20:57;1.90;40.40
10245;DHT22;5167;52.164;10.530;2023-02-05T07:23:23;1.90;40.70
10245;DHT22;5167;52.164;10.530;2023-02-05T07:25:49;1.90;40.70
10245;DHT22;5167;52.164;10.530;2023-02-05T07:28:14;1.90;41.00
10245;DHT22;5167;52.164;10.530;2023-02-05T07:30:40;1.90;40.40
10245;DHT22;5167;52.164;10.530;2023-02-05T07:33:05;1.90;40.20
10245;DHT22;5167;52.164;10.530;2023-02-05T07:35:31;1.90;40.50
10245;DHT22;5167;52.164;10.530;2023-02-05T07:37:57;1.80;40.00
10245;DHT22;5167;52.164;10.530;2023-02-05T07:40:23;1.90;40.60
10245;DHT22;5167;52.164;10.530;2023-02-05T07:42:49;1.80;40.40
10245;DHT22;5167;52.164;10.530;2023-02-05T07:45:14;2.10;41.40
10245;DHT22;5167;52.164;10.530;2023-02-05T07:47:40;1.80;41.70
10245;DHT22;5167;52.164;10.530;2023-02-05T07:50:05;1.90;41.20
10245;DHT22;5167;52.164;10.530;2023-02-05T07:52:32;1.90;41.80
10245;DHT22;5167;52.164;10.530;2023-02-05T07:54:57;1.90;42.10
10245;DHT22;5167;52.164;10.530;2023-02-05T07:57:23;1.90;41.20
10245;DHT22;5167;52.164;10.530;2023-02-05T07:59:50;1.90;41.70
10245;DHT22;5167;52.164;10.530;2023-02-05T08:02:16;2.00;41.30
10245;DHT22;5167;52.164;10.530;2023-02-05T08:04:42;1.90;41.70
10245;DHT22;5167;52.164;10.530;2023-02-05T08:07:11;2.00;41.60
10245;DHT22;5167;52.164;10.530;2023-02-05T08:09:37;2.00;42.00
10245;DHT22;5167;52.164;10.530;2023-02-05T08:12:03;2.10;41.80
10245;DHT22;5167;52.164;10.530;2023-02-05T08:14:28;2.10;41.80
10245;DHT22;5167;52.164;10.530;2023-02-05T08:16:56;2.10;41.90
10245;DHT22;5167;52.164;10.530;2023-02-05T08:19:22;2.20;41.60
10245;DHT22;5167;52.164;10.530;2023-02-05T08:21:48;2.20;42.00
10245;DHT22;5167;52.164;10.530;2023-02-05T08:24:13;2.30;41.60
10245;DHT22;5167;52.164;10.530;2023-02-05T08:26:39;2.30;41.70
10245;DHT22;5167;52.164;10.530;2023-02-05T08:29:04;2.30;41.40
10245;DHT22;5167;52.164;10.530;2023-02-05T08:31:32;2.30;41.80
10245;DHT22;5167;52.164;10.530;2023-02-05T08:33:58;2.30;42.10
10245;DHT22;5167;52.164;10.530;2023-02-05T08:36:24;2.40;42.00
10245;DHT22;5167;52.164;10.530;2023-02-05T08:38:49;2.40;41.30
10245;DHT22;5167;52.164;10.530;2023-02-05T08:41:15;2.50;41.60
10245;DHT22;5167;52.164;10.530;2023-02-05T08:43:45;2.50;41.60
10245;DHT22;5167;52.164;10.530;2023-02-05T08:46:14;2.50;41.80
10245;DHT22;5167;52.164;10.530;2023-02-05T08:48:40;2.60;41.10
10245;DHT22;5167;52.164;10.530;2023-02-05T08:51:08;2.70;41.30
10245;DHT22;5167;52.164;10.530;2023-02-05T08:53:34;2.60;41.00
10245;DHT22;5167;52.164;10.530;2023-02-05T08:56:01;2.70;41.00
10245;DHT22;5167;52.164;10.530;2023-02-05T08:58:27;2.70;40.30
10245;DHT22;5167;52.164;10.530;2023-02-05T09:01:03;2.80;40.40
10245;DHT22;5167;52.164;10.530;2023-02-05T09:03:30;2.80;39.70
10245;DHT22;5167;52.164;10.530;2023-02-05T09:05:56;2.80;39.30
10245;DHT22;5167;52.164;10.530;2023-02-05T09:08:23;3.00;39.50
10245;DHT22;5167;52.164;10.530;2023-02-05T09:10:49;3.10;39.40
10245;DHT22;5167;52.164;10.530;2023-02-05T09:13:14;2.90;39.60
10245;DHT22;5167;52.164;10.530;2023-02-05T09:15:42;3.00;39.70
10245;DHT22;5167;52.164;10.530;2023-02-05T09:18:07;3.00;39.50
10245;DHT22;5167;52.164;10.530;2023-02-05T09:20:33;3.00;38.90
10245;DHT22;5167;52.164;10.530;2023-02-05T09:22:59;3.00;38.80
10245;DHT22;5167;52.164;10.530;2023-02-05T09:25:25;3.00;38.70
10245;DHT22;5167;52.164;10.530;2023-02-05T09:27:50;3.10;39.00
10245;DHT22;5167;52.164;10.530;2023-02-05T09:30:16;3.10;38.30
10245;DHT22;5167;52.164;10.530;2023-02-05T09:32:41;3.20;38.20
10245;DHT22;5167;52.164;10.530;2023-02-05T09:35:07;3.10;38.10
10245;DHT22;5167;52.164;10.530;2023-02-05T09:37:32;3.20;38.20
10245;DHT22;5167;52.164;10.530;2023-02-05T09:39:58;3.20;38.00
10245;DHT22;5167;52.164;10.530;2023-02-05T09:42:29;3.20;37.80
10245;DHT22;5167;52.164;10.530;2023-02-05T09:48:18;3.40;38.10
10245;DHT22;5167;52.164;10.530;2023-02-05T09:50:49;3.40;38.00
10245;DHT22;5167;52.164;10.530;2023-02-05T09:53:18;3.40;37.60
10245;DHT22;5167;52.164;10.530;2023-02-05T09:55:46;3.50;37.00
10245;DHT22;5167;52.164;10.530;2023-02-05T09:58:21;3.40;37.70
10245;DHT22;5167;52.164;10.530;2023-02-05T10:00:53;3.60;37.40
10245;DHT22;5167;52.164;10.530;2023-02-05T10:03:42;3.60;36.80
10245;DHT22;5167;52.164;10.530;2023-02-05T10:09:41;3.70;36.80
10245;DHT22;5167;52.164;10.530;2023-02-05T10:21:00;3.80;36.00
10245;DHT22;5167;52.164;10.530;2023-02-05T10:26:47;3.90;36.20
10245;DHT22;5167;52.164;10.530;2023-02-05T10:31:56;4.00;34.60
10245;DHT22;5167;52.164;10.530;2023-02-05T10:37:16;4.10;33.00
10245;DHT22;5167;52.164;10.530;2023-02-05T10:39:43;4.20;33.20
10245;DHT22;5167;52.164;10.530;2023-02-05T10:42:17;4.20;33.00
10245;DHT22;5167;52.164;10.530;2023-02-05T10:44:48;4.30;34.00
10245;DHT22;5167;52.164;10.530;2023-02-05T10:47:43;4.30;33.10
10245;DHT22;5167;52.164;10.530;2023-02-05T10:50:26;4.40;33.10
10245;DHT22;5167;52.164;10.530;2023-02-05T10:52:55;4.40;33.20
10245;DHT22;5167;52.164;10.530;2023-02-05T10:55:20;4.40;32.40
10245;DHT22;5167;52.164;10.530;2023-02-05T10:57:46;4.40;33.30
10245;DHT22;5167;52.164;10.530;2023-02-05T11:00:18;4.40;32.30
10245;DHT22;5167;52.164;10.530;2023-02-05T11:02:48;4.50;33.10
10245;DHT22;5167;52.164;10.530;2023-02-05T11:05:29;4.40;32.50
10245;DHT22;5167;52.164;10.530;2023-02-05T11:07:56;4.60;33.10
10245;DHT22;5167;52.164;10.530;2023-02-05T11:10:28;4.50;31.90
10245;DHT22;5167;52.164;10.530;2023-02-05T11:13:04;4.50;31.80
10245;DHT22;5167;52.164;10.530;2023-02-05T11:16:02;4.60;32.40
10245;DHT22;5167;52.164;10.530;2023-02-05T11:18:34;4.60;31.40
10245;DHT22;5167;52.164;10.530;2023-02-05T11:21:03;4.60;31.40
10245;DHT22;5167;52.164;10.530;2023-02-05T11:23:29;4.60;30.60
10245;DHT22;5167;52.164;10.530;2023-02-05T11:26:30;4.60;31.00
10245;DHT22;5167;52.164;10.530;2023-02-05T11:28:55;4.90;31.10
10245;DHT22;5167;52.164;10.530;2023-02-05T11:31:30;4.50;30.60
10245;DHT22;5167;52.164;10.530;2023-02-05T11:34:14;4.70;30.90
10245;DHT22;5167;52.164;10.530;2023-02-05T11:36:49;4.60;30.60
10245;DHT22;5167;52.164;10.530;2023-02-05T11:39:35;4.70;30.40
10245;DHT22;5167;52.164;10.530;2023-02-05T11:42:09;4.70;30.90
10245;DHT22;5167;52.164;10.530;2023-02-05T11:44:47;4.80;30.40
10245;DHT22;5167;52.164;10.530;2023-02-05T11:47:21;4.80;30.80
10245;DHT22;5167;52.164;10.530;2023-02-05T11:49:49;4.80;31.50
10245;DHT22;5167;52.164;10.530;2023-02-05T11:52:23;4.80;30.30
10245;DHT22;5167;52.164;10.530;2023-02-05T11:54:49;4.90;29.80
10245;DHT22;5167;52.164;10.530;2023-02-05T12:02:34;5.00;28.90
10245;DHT22;5167;52.164;10.530;2023-02-05T12:07:51;4.90;29.00
10245;DHT22;5167;52.164;10.530;2023-02-05T12:10:33;5.00;29.40
10245;DHT22;5167;52.164;10.530;2023-02-05T12:16:18;5.10;29.30
10245;DHT22;5167;52.164;10.530;2023-02-05T12:21:35;5.10;28.40
10245;DHT22;5167;52.164;10.530;2023-02-05T12:26:43;5.10;28.80
10245;DHT22;5167;52.164;10.530;2023-02-05T12:29:26;5.10;28.70
10245;DHT22;5167;52.164;10.530;2023-02-05T12:37:49;5.20;29.00
10245;DHT22;5167;52.164;10.530;2023-02-05T12:46:02;5.30;29.60
10245;DHT22;5167;52.164;10.530;2023-02-05T12:54:23;5.30;29.40
10245;DHT22;5167;52.164;10.530;2023-02-05T12:57:07;5.30;29.50
10245;DHT22;5167;52.164;10.530;2023-02-05T13:02:35;5.30;30.10
10245;DHT22;5167;52.164;10.530;2023-02-05T13:07:56;5.40;30.70
10245;DHT22;5167;52.164;10.530;2023-02-05T13:10:51;5.30;30.70
10245;DHT22;5167;52.164;10.530;2023-02-05T13:13:43;5.40;30.90
10245;DHT22;5167;52.164;10.530;2023-02-05T13:16:15;5.30;31.90
10245;DHT22;5167;52.164;10.530;2023-02-05T13:18:47;5.30;31.20
10245;DHT22;5167;52.164;10.530;2023-02-05T13:21:19;5.40;31.30
10245;DHT22;5167;52.164;10.530;2023-02-05T13:24:32;5.40;31.50
10245;DHT22;5167;52.164;10.530;2023-02-05T13:27:39;5.40;31.30
10245;DHT22;5167;52.164;10.530;2023-02-05T13:30:33;5.40;31.90
10245;DHT22;5167;52.164;10.530;2023-02-05T13:33:03;5.40;30.90
10245;DHT22;5167;52.164;10.530;2023-02-05T13:35:33;5.50;31.20
10245;DHT22;5167;52.164;10.530;2023-02-05T13:38:14;5.40;30.30
10245;DHT22;5167;52.164;10.530;2023-02-05T13:46:08;5.30;31.30
10245;DHT22;5167;52.164;10.530;2023-02-05T13:54:45;5.20;31.50
10245;DHT22;5167;52.164;10.530;2023-02-05T13:57:46;5.20;31.50
10245;DHT22;5167;52.164;10.530;2023-02-05T14:00:17;5.20;31.50
10245;DHT22;5167;52.164;10.530;2023-02-05T14:02:45;5.40;31.80
10245;DHT22;5167;52.164;10.530;2023-02-05T14:05:13;5.30;30.50
10245;DHT22;5167;52.164;10.530;2023-02-05T14:07:48;5.20;30.30
10245;DHT22;5167;52.164;10.530;2023-02-05T14:10:30;5.20;32.40
10245;DHT22;5167;52.164;10.530;2023-02-05T14:13:27;5.20;31.00
10245;DHT22;5167;52.164;10.530;2023-02-05T14:19:04;5.30;30.80
10245;DHT22;5167;52.164;10.530;2023-02-05T14:26:48;5.20;28.60
10245;DHT22;5167;52.164;10.530;2023-02-05T14:32:09;5.20;29.00
10245;DHT22;5167;52.164;10.530;2023-02-05T14:37:01;5.30;28.60
10245;DHT22;5167;52.164;10.530;2023-02-05T14:39:29;5.20;28.20
10245;DHT22;5167;52.164;10.530;2023-02-05T14:41:59;5.30;28.50
10245;DHT22;5167;52.164;10.530;2023-02-05T14:44:32;5.20;28.20
10245;DHT22;5167;52.164;10.530;2023-02-05T14:49:46;5.20;27.50
10245;DHT22;5167;52.164;10.530;2023-02-05T14:52:32;5.20;27.70
10245;DHT22;5167;52.164;10.530;2023-02-05T14:58:00;5.20;28.00
10245;DHT22;5167;52.164;10.530;2023-02-05T15:00:40;5.30;28.30
10245;DHT22;5167;52.164;10.530;2023-02-05T15:13:29;5.40;27.70
10245;DHT22;5167;52.164;10.530;2023-02-05T15:18:54;5.40;28.10
10245;DHT22;5167;52.164;10.530;2023-02-05T15:21:26;5.50;28.30
10245;DHT22;5167;52.164;10.530;2023-02-05T15:24:11;5.50;27.80
10245;DHT22;5167;52.164;10.530;2023-02-05T15:26:41;5.40;27.90
10245;DHT22;5167;52.164;10.530;2023-02-05T15:29:24;5.50;28.00
10245;DHT22;5167;52.164;10.530;2023-02-05T15:31:57;5.50;27.50
10245;DHT22;5167;52.164;10.530;2023-02-05T15:34:40;5.50;28.10
10245;DHT22;5167;52.164;10.530;2023-02-05T15:37:37;5.50;28.80
10245;DHT22;5167;52.164;10.530;2023-02-05T15:40:17;5.50;28.80
10245;DHT22;5167;52.164;10.530;2023-02-05T15:42:44;5.40;28.30
10245;DHT22;5167;52.164;10.530;2023-02-05T15:45:31;5.40;28.30
10245;DHT22;5167;52.164;10.530;2023-02-05T15:53:39;5.30;28.70
10245;DHT22;5167;52.164;10.530;2023-02-05T15:58:59;5.20;28.60
10245;DHT22;5167;52.164;10.530;2023-02-05T16:01:32;5.10;29.00
10245;DHT22;5167;52.164;10.530;2023-02-05T16:03:59;5.10;30.00
10245;DHT22;5167;52.164;10.530;2023-02-05T16:06:27;5.10;29.20
10245;DHT22;5167;52.164;10.530;2023-02-05T16:08:53;5.00;30.00
10245;DHT22;5167;52.164;10.530;2023-02-05T16:11:31;5.10;29.80
10245;DHT22;5167;52.164;10.530;2023-02-05T16:14:11;5.00;29.30
10245;DHT22;5167;52.164;10.530;2023-02-05T16:17:06;4.90;30.10
10245;DHT22;5167;52.164;10.530;2023-02-05T16:19:43;4.90;29.60
10245;DHT22;5167;52.164;10.530;2023-02-05T16:24:45;4.80;29.30
10245;DHT22;5167;52.164;10.530;2023-02-05T16:27:18;4.70;29.70
10245;DHT22;5167;52.164;10.530;2023-02-05T16:29:49;4.70;29.70
10245;DHT22;5167;52.164;10.530;2023-02-05T16:32:26;4.60;29.40
10245;DHT22;5167;52.164;10.530;2023-02-05T16:34:53;4.60;29.00
10245;DHT22;5167;52.164;10.530;2023-02-05T16:37:20;4.60;30.10
10245;DHT22;5167;52.164;10.530;2023-02-05T16:39:51;4.60;29.50
10245;DHT22;5167;52.164;10.530;2023-02-05T16:47:34;4.50;29.20
10245;DHT22;5167;52.164;10.530;2023-02-05T16:49:59;4.50;30.20
10245;DHT22;5167;52.164;10.530;2023-02-05T16:52:35;4.50;29.50
10245;DHT22;5167;52.164;10.530;2023-02-05T16:57:54;4.50;30.40
10245;DHT22;5167;52.164;10.530;2023-02-05T17:00:25;4.40;30.10
10245;DHT22;5167;52.164;10.530;2023-02-05T17:02:54;4.30;29.70
10245;DHT22;5167;52.164;10.530;2023-02-05T17:05:26;4.30;30.40
10245;DHT22;5167;52.164;10.530;2023-02-05T17:07:59;4.30;29.90
10245;DHT22;5167;52.164;10.530;2023-02-05T17:10:26;4.20;29.90
10245;DHT22;5167;52.164;10.530;2023-02-05T17:12:55;4.30;30.30
10245;DHT22;5167;52.164;10.530;2023-02-05T17:17:54;4.20;31.00
10245;DHT22;5167;52.164;10.530;2023-02-05T17:25:33;4.30;31.80
10245;DHT22;5167;52.164;10.530;2023-02-05T17:28:04;4.20;30.90
10245;DHT22;5167;52.164;10.530;2023-02-05T17:30:31;4.20;31.20
10245;DHT22;5167;52.164;10.530;2023-02-05T17:32:56;4.20;31.10
10245;DHT22;5167;52.164;10.530;2023-02-05T17:35:22;4.20;31.90
10245;DHT22;5167;52.164;10.530;2023-02-05T17:37:54;4.10;32.00
10245;DHT22;5167;52.164;10.530;2023-02-05T17:40:19;4.10;31.60
10245;DHT22;5167;52.164;10.530;2023-02-05T17:42:46;4.10;32.10
10245;DHT22;5167;52.164;10.530;2023-02-05T17:45:20;4.10;31.90
10245;DHT22;5167;52.164;10.530;2023-02-05T17:47:46;4.10;32.50
10245;DHT22;5167;52.164;10.530;2023-02-05T17:50:12;4.20;31.90
10245;DHT22;5167;52.164;10.530;2023-02-05T17:52:38;4.20;31.80
10245;DHT22;5167;52.164;10.530;2023-02-05T17:55:05;4.20;31.30
10245;DHT22;5167;52.164;10.530;2023-02-05T17:57:30;4.20;32.10
10245;DHT22;5167;52.164;10.530;2023-02-05T17:59:58;4.20;31.80
10245;DHT22;5167;52.164;10.530;2023-02-05T18:02:24;4.20;31.80
10245;DHT22;5167;52.164;10.530;2023-02-05T18:04:50;4.20;32.20
10245;DHT22;5167;52.164;10.530;2023-02-05T18:07:29;4.20;31.80
10245;DHT22;5167;52.164;10.530;2023-02-05T18:09:56;4.20;32.40
10245;DHT22;5167;52.164;10.530;2023-02-05T18:12:22;4.20;31.60
10245;DHT22;5167;52.164;10.530;2023-02-05T18:14:48;4.20;31.60
10245;DHT22;5167;52.164;10.530;2023-02-05T18:17:14;4.10;32.20
10245;DHT22;5167;52.164;10.530;2023-02-05T18:19:39;4.20;32.10
10245;DHT22;5167;52.164;10.530;2023-02-05T18:22:05;4.20;32.40
10245;DHT22;5167;52.164;10.530;2023-02-05T18:24:31;4.20;32.50
10245;DHT22;5167;52.164;10.530;2023-02-05T18:26:56;4.20;31.80
10245;DHT22;5167;52.164;10.530;2023-02-05T18:29:22;4.30;31.80
10245;DHT22;5167;52.164;10.530;2023-02-05T18:31:48;4.20;31.70